Time;durP1;ratioP1;P1;durP2;ratioP2;P2;SDS_P1;SDS_P2;PMS_P1;PMS_P2;Temp;Humidity;BMP_temperature;BMP_pressure;BME280_temperature;BME280_humidity;BME280_pressure;Samples;Min_cycle;Max_cycle;Signal;HPM_P1;HPM_P2
2022/05/14 00:00:45;;;;;;;;;5.50;5.00;;;;;17.64;45.09;101647.16;5046816;28;45126;-86
2022/05/14 00:03:11;;;;;;;;;4.75;4.00;;;;;17.71;45.11;101671.22;5047816;28;45792;-88
2022/05/14 00:05:37;;;;;;;;;4.00;4.00;;;;;17.88;45.56;101699.94;5048621;28;45059;-88
2022/05/14 00:08:03;;;;;;;;;4.75;4.50;;;;;17.24;45.08;101593.16;5041792;28;48098;-87
2022/05/14 00:10:30;;;;;;;;;6.00;5.50;;;;;17.82;45.50;101700.72;5045529;28;45389;-87
2022/05/14 00:13:05;;;;;;;;;5.00;5.00;;;;;17.53;45.64;101654.91;5049165;28;45182;-87
2022/05/14 00:15:40;;;;;;;;;2.75;2.75;;;;;17.46;45.82;101652.97;5047500;28;45255;-88
2022/05/14 00:18:08;;;;;;;;;4.75;4.75;;;;;17.74;45.95;101707.66;5048532;28;45449;-86
2022/05/14 00:20:36;;;;;;;;;3.75;3.75;;;;;17.56;45.81;101686.88;5047937;28;45135;-87
2022/05/14 00:23:01;;;;;;;;;4.75;4.25;;;;;17.28;46.35;101641.09;5049248;28;45099;-88
2022/05/14 00:25:27;;;;;;;;;4.25;4.25;;;;;17.33;45.94;101654.47;5047035;28;45087;-87
2022/05/14 00:27:53;;;;;;;;;3.25;3.00;;;;;17.60;45.97;101709.09;5047430;28;45311;-87
2022/05/14 00:30:25;;;;;;;;;2.50;1.75;;;;;17.24;46.15;101638.31;5048910;28;45258;-88
2022/05/14 00:32:51;;;;;;;;;4.00;4.00;;;;;17.40;46.69;101671.47;5046995;28;45297;-87
2022/05/14 00:35:18;;;;;;;;;5.50;4.50;;;;;17.10;46.68;101637.16;5043792;28;45157;-88
2022/05/14 00:37:43;;;;;;;;;5.25;4.25;;;;;17.35;46.67;101681.09;5028752;28;45895;-86
2022/05/14 00:40:27;;;;;;;;;4.50;4.00;;;;;17.20;46.78;101647.13;5024318;28;45187;-88
2022/05/14 00:42:52;;;;;;;;;5.00;4.25;;;;;16.86;46.67;101600.31;5027235;28;45367;-88
2022/05/14 00:45:18;;;;;;;;;6.00;5.25;;;;;17.31;47.31;101695.19;5028616;28;45186;-88
2022/05/14 00:47:48;;;;;;;;;4.25;4.00;;;;;16.81;47.53;101617.91;5026177;28;46028;-88
2022/05/14 00:50:16;;;;;;;;;4.50;3.50;;;;;17.16;47.55;101686.00;5032356;28;45477;-88
2022/05/14 00:52:44;;;;;;;;;5.25;5.25;;;;;17.04;47.73;101683.03;5032043;28;45045;-87
2022/05/14 00:55:09;;;;;;;;;5.75;4.25;;;;;16.61;48.03;101615.66;5031053;28;45025;-86
2022/05/14 00:57:38;;;;;;;;;5.25;4.50;;;;;16.63;48.31;101620.97;5030778;28;46726;-86
2022/05/14 01:00:13;;;;;;;;;6.00;5.50;;;;;16.59;48.56;101627.06;5029343;28;45292;-88
2022/05/14 01:02:42;;;;;;;;;4.50;4.50;;;;;16.64;48.74;101657.28;5031195;28;45070;-87
2022/05/14 01:05:10;;;;;;;;;5.00;5.00;;;;;16.68;48.58;101656.50;5032493;28;45177;-88
2022/05/14 01:07:37;;;;;;;;;4.50;4.50;;;;;16.52;48.53;101648.16;5031497;28;45260;-86
2022/05/14 01:10:06;;;;;;;;;3.75;3.75;;;;;16.40;49.08;101642.56;5029812;28;45147;-86
2022/05/14 01:12:33;;;;;;;;;7.50;5.25;;;;;16.32;49.44;101632.59;5050155;28;45009;-86
2022/05/14 01:15:19;;;;;;;;;6.25;6.25;;;;;16.42;49.45;101664.72;5050959;28;45028;-87
2022/05/14 01:17:45;;;;;;;;;8.25;7.75;;;;;15.73;49.43;101538.28;5051011;28;45391;-86
2022/05/14 01:20:11;;;;;;;;;7.50;7.50;;;;;16.41;49.46;101647.00;5051936;28;45095;-86
2022/05/14 01:22:45;;;;;;;;;8.00;7.50;;;;;16.61;49.55;101673.16;5050477;28;45147;-86
2022/05/14 01:28:14;;;;;;;;;7.25;7.00;;;;;16.25;49.59;101616.53;5031221;28;45183;-85
2022/05/14 01:30:48;;;;;;;;;8.00;7.50;;;;;16.50;50.05;101663.16;5027807;28;45175;-87
2022/05/14 01:33:14;;;;;;;;;7.25;7.00;;;;;16.22;50.32;101631.47;5030304;28;45014;-86
2022/05/14 01:35:41;;;;;;;;;9.25;9.00;;;;;16.32;50.53;101668.00;5028027;28;45256;-87
2022/05/14 01:38:06;;;;;;;;;7.75;7.00;;;;;15.91;50.25;101601.50;5026382;28;46904;-86
2022/05/14 01:40:32;;;;;;;;;8.25;8.25;;;;;16.10;50.67;101641.75;5030525;28;44996;-87
2022/05/14 01:42:58;;;;;;;;;7.75;7.75;;;;;15.96;51.07;101630.81;5031170;28;45107;-87
2022/05/14 01:45:25;;;;;;;;;8.25;8.25;;;;;16.09;51.20;101655.88;5030402;28;44959;-85
2022/05/14 01:47:51;;;;;;;;;7.00;7.00;;;;;15.79;51.33;101614.41;5029621;28;47661;-87
2022/05/14 01:50:16;;;;;;;;;7.50;7.50;;;;;15.92;51.32;101645.72;5031086;28;45103;-85
2022/05/14 01:52:41;;;;;;;;;9.00;8.00;;;;;15.76;51.04;101605.47;5029614;28;45107;-87
2022/05/14 01:55:07;;;;;;;;;7.50;7.50;;;;;15.58;51.33;101572.31;5030605;28;45337;-85
2022/05/14 01:57:32;;;;;;;;;6.25;6.00;;;;;15.71;50.82;101595.69;5029467;28;45346;-87
2022/05/14 01:59:58;;;;;;;;;8.00;7.00;;;;;15.95;51.69;101636.94;5027214;28;45005;-88
2022/05/14 02:02:23;;;;;;;;;8.00;8.00;;;;;15.86;51.50;101629.66;5028275;28;45096;-88
2022/05/14 02:04:49;;;;;;;;;7.00;6.75;;;;;15.79;51.81;101617.06;5030054;28;45341;-87
2022/05/14 02:07:14;;;;;;;;;7.25;6.75;;;;;16.00;51.78;101656.50;5029983;28;47413;-88
2022/05/14 02:09:39;;;;;;;;;8.00;7.00;;;;;15.81;52.08;101631.28;5029724;28;45145;-86
2022/05/14 02:12:05;;;;;;;;;8.50;7.75;;;;;15.59;51.92;101600.59;5047388;28;45036;-88
2022/05/14 02:14:31;;;;;;;;;7.00;7.00;;;;;15.93;51.60;101658.13;5051199;28;45226;-85
2022/05/14 02:16:57;;;;;;;;;9.75;8.75;;;;;15.42;52.07;101580.69;5050679;28;45184;-88
2022/05/14 02:19:23;;;;;;;;;7.50;7.00;;;;;15.89;51.51;101668.59;5047517;28;45748;-87
2022/05/14 02:21:48;;;;;;;;;6.50;6.50;;;;;15.68;51.91;101639.75;5051109;28;44951;-87
2022/05/14 02:24:14;;;;;;;;;6.00;5.75;;;;;15.45;52.05;101580.75;5049149;28;45212;-86
2022/05/14 02:26:39;;;;;;;;;8.75;7.75;;;;;15.70;52.11;101645.97;5049180;28;47553;-88
2022/05/14 02:29:05;;;;;;;;;8.25;7.50;;;;;15.24;52.45;101578.41;5047439;28;45318;-87
2022/05/14 02:31:31;;;;;;;;;8.00;6.75;;;;;15.65;52.13;101660.84;5048643;28;45369;-87
2022/05/14 02:33:57;;;;;;;;;6.00;6.00;;;;;15.48;52.57;101634.72;5050874;28;45241;-88
2022/05/14 02:36:22;;;;;;;;;6.75;6.75;;;;;15.60;52.89;101654.47;5050687;28;45899;-86
2022/05/14 02:38:47;;;;;;;;;8.25;8.00;;;;;15.32;52.89;101616.63;5046435;28;45178;-85
2022/05/14 02:41:14;;;;;;;;;8.00;6.75;;;;;15.16;52.97;101609.03;5048863;28;45024;-86
2022/05/14 02:43:40;;;;;;;;;7.00;7.00;;;;;15.29;52.91;101631.50;5049358;28;45106;-87
2022/05/14 02:46:06;;;;;;;;;7.00;7.00;;;;;15.26;52.94;101628.75;5048313;28;45897;-86
2022/05/14 02:48:33;;;;;;;;;8.75;8.75;;;;;15.41;53.14;101653.03;5048660;28;45237;-87
2022/05/14 02:50:59;;;;;;;;;8.00;7.00;;;;;14.89;53.31;101567.66;5050847;28;45227;-86
2022/05/14 02:53:25;;;;;;;;;7.25;6.50;;;;;15.17;53.52;101619.72;5048257;28;45194;-87
2022/05/14 02:55:50;;;;;;;;;5.25;5.25;;;;;14.98;53.24;101590.88;5050153;28;45638;-88
2022/05/14 02:59:07;;;;;;;;;7.25;6.25;;;;;15.34;53.37;101662.56;5050585;28;44996;-87
2022/05/14 03:01:05;;;;;;;;;8.00;7.50;;;;;14.56;54.01;101541.06;5049976;28;45194;-87
2022/05/14 03:03:31;;;;;;;;;7.00;6.50;;;;;15.02;53.94;101626.25;5050084;28;45119;-87
2022/05/14 03:05:57;;;;;;;;;7.00;7.00;;;;;14.99;54.04;101627.09;5049502;28;45530;-87
2022/05/14 03:08:23;;;;;;;;;3.50;3.50;;;;;14.75;54.06;101574.28;5049191;28;45286;-85
2022/05/14 03:10:48;;;;;;;;;7.50;6.75;;;;;15.03;54.05;101626.34;5049359;28;45253;-85
2022/05/14 03:13:13;;;;;;;;;7.00;7.00;;;;;14.93;53.80;101605.72;5048827;28;45204;-85
2022/05/14 03:15:39;;;;;;;;;7.00;7.00;;;;;14.98;53.92;101617.34;5048741;28;45260;-87
2022/05/14 03:18:04;;;;;;;;;7.00;6.50;;;;;14.71;54.52;101580.34;5047340;28;45095;-86
2022/05/14 03:20:29;;;;;;;;;9.75;7.00;;;;;14.96;54.28;101633.16;5047819;28;45230;-87
2022/05/14 03:22:55;;;;;;;;;7.50;7.00;;;;;14.82;54.09;101609.78;5048287;28;45102;-86
2022/05/14 03:25:20;;;;;;;;;5.50;5.50;;;;;14.88;54.17;101615.28;5046877;28;47690;-85
2022/05/14 03:27:45;;;;;;;;;8.00;8.00;;;;;15.03;54.20;101650.16;5046642;28;45435;-88
2022/05/14 03:30:11;;;;;;;;;5.33;5.33;;;;;14.76;54.15;101606.94;5050003;28;45402;-86
2022/05/14 03:32:36;;;;;;;;;10.00;6.50;;;;;14.87;53.85;101632.88;5047808;28;44966;-87
2022/05/14 03:35:05;;;;;;;;;7.00;7.00;;;;;15.01;53.88;101651.84;5049381;28;45576;-86
2022/05/14 03:37:31;;;;;;;;;6.25;6.25;;;;;15.12;54.34;101665.41;5047088;28;45151;-87
2022/05/14 03:39:56;;;;;;;;;6.50;6.50;;;;;14.79;54.07;101613.22;5049501;28;45328;-86
2022/05/14 03:42:22;;;;;;;;;7.75;7.00;;;;;15.05;54.52;101668.72;5047720;28;45098;-86
2022/05/14 03:44:48;;;;;;;;;6.67;6.33;;;;;14.66;54.73;101618.97;5048821;28;46017;-87
2022/05/14 03:47:13;;;;;;;;;8.50;6.00;;;;;14.10;54.40;101522.81;5046505;28;45229;-84
2022/05/14 03:49:39;;;;;;;;;7.00;6.50;;;;;14.58;54.63;101599.31;5049351;28;45264;-87
2022/05/14 03:52:04;;;;;;;;;7.00;6.50;;;;;14.48;54.41;101584.88;5049611;28;45225;-87
2022/05/14 03:54:29;;;;;;;;;8.00;7.25;;;;;14.43;54.33;101578.50;5048709;28;46146;-86
2022/05/14 03:56:55;;;;;;;;;7.25;6.25;;;;;14.60;54.64;101614.41;5048226;28;45083;-85
2022/05/14 03:59:20;;;;;;;;;4.33;4.00;;;;;14.50;54.73;101596.44;5047713;28;45279;-85
2022/05/14 04:01:45;;;;;;;;;6.00;6.00;;;;;14.52;54.98;101613.25;5046392;28;45337;-88
2022/05/14 04:04:11;;;;;;;;;5.00;4.75;;;;;14.07;55.20;101542.09;5047462;28;47186;-87
2022/05/14 04:06:36;;;;;;;;;6.75;6.75;;;;;14.73;55.38;101663.34;5047707;28;44968;-85
2022/05/14 04:09:02;;;;;;;;;7.00;6.75;;;;;14.42;55.35;101616.41;5048991;28;45017;-85
2022/05/14 04:11:27;;;;;;;;;8.50;7.50;;;;;14.16;55.51;101583.81;5048966;28;45181;-87
2022/05/14 04:13:53;;;;;;;;;7.00;6.50;;;;;14.23;55.68;101603.41;5046782;28;47087;-87
2022/05/14 04:16:18;;;;;;;;;6.75;6.75;;;;;14.22;55.71;101607.81;5045201;28;45126;-86
2022/05/14 04:18:43;;;;;;;;;7.25;6.25;;;;;13.93;55.72;101568.06;5047062;28;45354;-85
2022/05/14 04:21:10;;;;;;;;;8.25;8.25;;;;;14.53;55.71;101672.34;5046685;28;45089;-86
2022/05/14 04:23:36;;;;;;;;;8.50;8.00;;;;;14.39;56.05;101637.47;5045605;28;46425;-86
2022/05/14 04:26:02;;;;;;;;;6.00;6.00;;;;;14.28;56.02;101623.88;5047965;28;45243;-87
2022/05/14 04:28:28;;;;;;;;;7.25;6.75;;;;;14.31;56.17;101631.91;5046543;28;45459;-87
2022/05/14 04:30:54;;;;;;;;;7.25;6.50;;;;;14.18;55.83;101609.44;5047853;28;45087;-87
2022/05/14 04:33:19;;;;;;;;;7.00;7.00;;;;;14.24;56.04;101623.75;5046365;28;47031;-87
2022/05/14 04:35:45;;;;;;;;;7.25;6.25;;;;;14.26;56.05;101638.81;5048240;28;45051;-85
2022/05/14 04:38:11;;;;;;;;;8.50;8.50;;;;;14.47;56.33;101667.69;5046567;28;45308;-85
2022/05/14 04:40:38;;;;;;;;;6.00;5.75;;;;;13.91;55.98;101576.81;5047469;28;45400;-87
2022/05/14 04:43:06;;;;;;;;;7.25;7.25;;;;;14.44;56.14;101651.75;5044114;28;46217;-86
2022/05/14 04:45:31;;;;;;;;;8.00;7.50;;;;;14.29;56.38;101628.34;5045276;28;45189;-86
2022/05/14 04:47:57;;;;;;;;;7.00;7.00;;;;;14.27;56.31;101619.44;5040927;28;45489;-87
2022/05/14 04:50:22;;;;;;;;;7.00;6.50;;;;;14.56;56.05;101681.28;5047892;28;45440;-86
2022/05/14 04:52:47;;;;;;;;;6.00;6.00;;;;;14.02;56.12;101571.88;5046884;28;47704;-86
2022/05/14 04:55:13;;;;;;;;;7.33;7.00;;;;;14.10;55.89;101591.56;5047963;28;44975;-88
2022/05/14 04:57:40;;;;;;;;;7.00;7.00;;;;;14.36;55.86;101626.78;5043230;28;45013;-86
2022/05/14 05:00:07;;;;;;;;;6.25;5.50;;;;;14.11;55.97;101578.38;5044768;28;45269;-87
2022/05/14 05:05:16;;;;;;;;;9.50;9.50;;;;;14.00;56.53;101553.34;5047892;28;45076;-87
2022/05/14 05:07:41;;;;;;;;;9.00;8.50;;;;;14.46;56.38;101628.88;5043947;28;45497;-87
2022/05/14 05:10:07;;;;;;;;;11.00;11.00;;;;;14.27;56.06;101594.75;5043067;28;45390;-86
2022/05/14 05:12:32;;;;;;;;;6.25;6.25;;;;;14.55;56.33;101647.75;5045741;28;46847;-87
2022/05/14 05:14:58;;;;;;;;;8.25;7.75;;;;;14.49;56.72;101629.03;5046824;28;44984;-86
2022/05/14 05:17:23;;;;;;;;;7.00;7.00;;;;;14.33;56.70;101594.94;5046300;28;45048;-87
2022/05/14 05:19:48;;;;;;;;;8.25;6.50;;;;;14.36;56.96;101603.88;5046750;28;45220;-87
2022/05/14 05:22:14;;;;;;;;;6.50;6.50;;;;;14.87;56.21;101685.81;5041367;28;47298;-87
2022/05/14 05:24:39;;;;;;;;;6.50;6.00;;;;;14.91;56.53;101684.16;5044681;28;45168;-86
2022/05/14 05:27:05;;;;;;;;;8.75;8.00;;;;;14.95;56.76;101689.63;5046872;28;45150;-85
2022/05/14 05:29:30;;;;;;;;;8.50;7.00;;;;;14.27;56.59;101552.44;5044606;28;45067;-86
2022/05/14 05:31:56;;;;;;;;;7.00;6.50;;;;;14.95;56.62;101665.78;5044711;28;45912;-87
2022/05/14 05:34:21;;;;;;;;;7.00;7.00;;;;;14.78;56.59;101621.09;5047886;28;45711;-87
2022/05/14 05:36:47;;;;;;;;;8.00;8.00;;;;;14.84;56.55;101613.38;5049912;28;45173;-86
2022/05/14 05:39:12;;;;;;;;;8.25;7.00;;;;;15.17;56.29;101671.75;5051757;28;45039;-86
2022/05/14 05:41:38;;;;;;;;;7.00;7.00;;;;;14.83;56.31;101599.25;5049000;28;45275;-87
2022/05/14 05:44:03;;;;;;;;;5.50;5.50;;;;;15.02;56.31;101624.50;5051707;28;45257;-86
2022/05/14 05:46:32;;;;;;;;;8.25;8.00;;;;;15.18;55.79;101650.63;5051199;28;45231;-86
2022/05/14 05:48:57;;;;;;;;;10.75;10.00;;;;;15.24;56.02;101641.97;5051364;28;45336;-86
2022/05/14 05:51:23;;;;;;;;;7.75;7.25;;;;;15.42;55.95;101662.81;5046939;28;45307;-87
2022/05/14 05:56:47;;;;;;;;;8.75;8.75;;;;;15.37;55.40;101640.56;5048886;28;45452;-85
2022/05/14 05:59:15;;;;;;;;;10.00;9.50;;;;;15.43;55.83;101656.66;5049670;28;45203;-88
2022/05/14 06:01:40;;;;;;;;;8.00;8.00;;;;;14.99;56.01;101552.06;5048381;28;45882;-86
2022/05/14 06:04:05;;;;;;;;;5.50;5.50;;;;;15.35;55.21;101624.63;5046781;28;45345;-87
2022/05/14 06:06:31;;;;;;;;;6.00;6.00;;;;;15.30;55.55;101605.06;5045908;28;45615;-87
2022/05/14 06:08:57;;;;;;;;;6.00;5.00;;;;;15.57;55.13;101635.88;5051176;28;45048;-87
2022/05/14 06:11:22;;;;;;;;;5.75;5.25;;;;;15.52;54.64;101608.31;5050068;28;45903;-85
2022/05/14 06:13:48;;;;;;;;;5.50;5.50;;;;;15.16;54.68;101540.19;5049366;28;44989;-87
2022/05/14 06:16:14;;;;;;;;;5.00;5.00;;;;;16.12;55.13;101694.00;5050716;28;45032;-86
2022/05/14 06:18:42;;;;;;;;;4.00;4.00;;;;;15.67;54.63;101608.81;5047969;28;45327;-86
2022/05/14 06:21:08;;;;;;;;;3.75;3.00;;;;;16.25;54.30;101696.13;5049029;28;45452;-86
2022/05/14 06:23:34;;;;;;;;;5.00;5.00;;;;;16.28;53.98;101695.28;5050127;28;45592;-86
2022/05/14 06:25:59;;;;;;;;;4.00;3.50;;;;;16.03;54.19;101639.81;5049470;28;45254;-86
2022/05/14 06:28:25;;;;;;;;;3.75;3.75;;;;;15.81;53.62;101595.91;5050131;28;44975;-87
2022/05/14 06:30:50;;;;;;;;;4.00;4.00;;;;;16.20;54.13;101651.75;5050422;28;45548;-87
2022/05/14 06:33:17;;;;;;;;;5.50;5.00;;;;;16.57;53.25;101705.78;5050699;28;45069;-86
2022/05/14 06:35:44;;;;;;;;;3.00;3.00;;;;;16.33;53.05;101666.22;5050132;28;45420;-87
2022/05/14 06:38:09;;;;;;;;;4.50;4.00;;;;;16.64;53.41;101705.06;5050670;28;45209;-85
2022/05/14 06:40:36;;;;;;;;;4.50;4.50;;;;;16.69;53.13;101706.06;5050112;28;45357;-86
2022/05/14 06:43:03;;;;;;;;;6.00;6.00;;;;;16.62;52.92;101690.84;5046378;28;45430;-86
2022/05/14 06:45:29;;;;;;;;;5.25;5.00;;;;;16.81;52.45;101706.41;5049794;28;45119;-87
2022/05/14 06:47:54;;;;;;;;;6.75;6.75;;;;;16.15;52.78;101571.16;5048988;28;45255;-85
2022/05/14 06:50:20;;;;;;;;;4.75;4.00;;;;;16.43;51.94;101610.78;5045703;28;45923;-87
2022/05/14 06:52:49;;;;;;;;;5.25;4.25;;;;;16.82;52.20;101668.38;5049117;28;45039;-85
2022/05/14 06:55:19;;;;;;;;;5.25;5.00;;;;;16.90;52.21;101681.84;5049519;28;45020;-87
2022/05/14 06:57:45;;;;;;;;;4.00;4.00;;;;;17.07;52.48;101708.78;5046570;28;45901;-86
2022/05/14 07:00:11;;;;;;;;;3.75;3.75;;;;;16.86;51.89;101664.03;5049884;28;45994;-86
2022/05/14 07:02:37;;;;;;;;;4.00;4.00;;;;;16.94;51.76;101667.75;5049630;28;45228;-86
2022/05/14 07:07:55;;;;;;;;;3.00;3.00;;;;;16.99;50.90;101652.81;5033192;28;44995;-86
2022/05/14 07:10:21;;;;;;;;;3.50;2.75;;;;;17.01;50.41;101648.47;5046406;28;46988;-87
2022/05/14 07:12:46;;;;;;;;;5.00;4.00;;;;;17.21;50.46;101672.81;5044526;28;45187;-86
2022/05/14 07:15:12;;;;;;;;;3.75;3.25;;;;;17.30;50.37;101673.03;5028149;28;45691;-85
2022/05/14 07:17:38;;;;;;;;;3.00;3.00;;;;;17.29;49.79;101665.94;5028036;28;45344;-85
2022/05/14 07:20:04;;;;;;;;;3.00;3.00;;;;;17.14;49.72;101631.03;5027604;28;45556;-87
2022/05/14 07:22:30;;;;;;;;;3.75;3.75;;;;;17.14;49.33;101637.25;5027922;28;45325;-86
2022/05/14 07:24:55;;;;;;;;;4.00;4.00;;;;;17.05;49.51;101609.59;5028556;28;45229;-87
2022/05/14 07:27:21;;;;;;;;;5.00;4.50;;;;;17.45;50.21;101670.69;5027672;28;45237;-87
2022/05/14 07:29:46;;;;;;;;;3.00;3.00;;;;;17.43;49.30;101655.56;5028166;28;47041;-85
2022/05/14 07:32:14;;;;;;;;;3.00;3.00;;;;;17.31;48.80;101624.31;5022792;28;45365;-86
2022/05/14 07:34:40;;;;;;;;;3.00;3.00;;;;;17.38;49.16;101638.63;5029199;28;45470;-86
2022/05/14 07:37:09;;;;;;;;;4.00;4.00;;;;;17.59;49.08;101664.78;5028259;28;45105;-88
2022/05/14 07:39:41;;;;;;;;;3.25;3.25;;;;;17.56;48.85;101659.38;5027760;28;47907;-86
2022/05/14 07:42:15;;;;;;;;;4.00;3.50;;;;;17.58;49.26;101658.53;5028027;28;45165;-86
2022/05/14 07:44:45;;;;;;;;;4.75;4.00;;;;;17.64;49.30;101653.38;5028931;28;45119;-85
2022/05/14 07:47:12;;;;;;;;;2.75;2.25;;;;;17.91;48.88;101690.28;5028804;28;45108;-88
2022/05/14 07:49:38;;;;;;;;;4.75;4.00;;;;;17.91;49.06;101678.75;5027161;28;47411;-86
2022/05/14 07:52:03;;;;;;;;;3.00;2.75;;;;;17.78;48.68;101643.94;5027905;28;45192;-86
2022/05/14 07:54:29;;;;;;;;;4.00;4.00;;;;;17.54;48.54;101590.25;5025780;28;45112;-87
2022/05/14 07:56:55;;;;;;;;;4.00;4.00;;;;;17.72;48.50;101627.81;5027730;28;45201;-87
2022/05/14 07:59:21;;;;;;;;;4.00;4.00;;;;;17.87;49.08;101645.84;5029026;28;45779;-86
2022/05/14 08:01:47;;;;;;;;;4.00;4.00;;;;;18.14;48.76;101679.19;5026961;28;45630;-87
2022/05/14 08:04:13;;;;;;;;;3.50;3.00;;;;;18.11;48.47;101669.38;5048098;28;45011;-86
2022/05/14 08:06:39;;;;;;;;;3.00;3.00;;;;;18.23;48.65;101672.28;5049482;28;45041;-87
2022/05/14 08:09:05;;;;;;;;;4.00;3.50;;;;;18.10;49.54;101633.00;5049811;28;46077;-86
2022/05/14 08:11:32;;;;;;;;;3.75;3.75;;;;;18.10;48.61;101619.69;5045195;28;45187;-87
2022/05/14 08:13:58;;;;;;;;;3.50;3.50;;;;;18.05;49.07;101598.31;5048107;28;45437;-89
2022/05/14 08:16:24;;;;;;;;;4.50;4.00;;;;;18.32;48.15;101639.56;5044784;28;45486;-88
2022/05/14 08:18:50;;;;;;;;;4.00;3.50;;;;;17.95;47.87;101559.13;5047212;28;45354;-86
2022/05/14 08:26:43;;;;;;;;;5.00;4.50;;;;;18.17;47.18;101589.66;5048742;28;45285;-88
2022/05/14 08:29:09;;;;;;;;;3.50;3.50;;;;;18.23;47.35;101592.44;5048782;28;45558;-86
2022/05/14 08:31:34;;;;;;;;;3.00;2.50;;;;;18.36;47.39;101614.81;5047052;28;45160;-88
2022/05/14 08:34:00;;;;;;;;;2.00;2.00;;;;;18.59;47.26;101643.59;5048681;28;45056;-84
2022/05/14 08:36:25;;;;;;;;;2.75;2.75;;;;;18.49;47.48;101622.13;5048315;28;45293;-88
2022/05/14 08:38:51;;;;;;;;;2.00;2.00;;;;;18.22;47.30;101552.47;5048760;28;45665;-87
2022/05/14 08:41:18;;;;;;;;;3.75;3.75;;;;;18.20;47.29;101549.81;5044455;28;45354;-87
2022/05/14 08:43:52;;;;;;;;;2.00;2.00;;;;;18.95;47.60;101661.94;5048498;28;45360;-88
2022/05/14 08:46:21;;;;;;;;;2.25;2.00;;;;;18.94;47.42;101649.50;5045410;28;45448;-87
2022/05/14 08:48:53;;;;;;;;;4.25;4.25;;;;;18.96;47.08;101629.97;5046418;28;47176;-89
2022/05/14 08:51:24;;;;;;;;;4.25;3.75;;;;;18.73;47.54;101575.50;5048482;28;45752;-86
2022/05/14 08:53:51;;;;;;;;;3.00;3.00;;;;;19.17;46.53;101634.72;5048509;28;45266;-87
2022/05/14 08:56:26;;;;;;;;;2.50;2.50;;;;;19.31;46.13;101649.16;5048430;28;45036;-88
2022/05/14 08:59:29;;;;;;;;;3.75;3.75;;;;;19.34;45.78;101650.94;5049004;28;45585;-87
2022/05/14 09:02:06;;;;;;;;;3.75;3.75;;;;;19.29;45.69;101639.31;5046475;28;45168;-87
2022/05/14 09:04:32;;;;;;;;;4.75;4.00;;;;;19.38;45.61;101650.09;5045037;28;45261;-87
2022/05/14 09:06:57;;;;;;;;;4.00;4.00;;;;;19.37;45.27;101636.75;5046145;28;45250;-88
2022/05/14 09:09:23;;;;;;;;;3.00;3.00;;;;;19.19;44.59;101600.09;5048274;28;45168;-86
2022/05/14 09:11:56;;;;;;;;;4.50;4.25;;;;;19.37;45.11;101618.09;5051671;28;45368;-87
2022/05/14 09:14:35;;;;;;;;;3.50;3.50;;;;;19.60;45.06;101651.28;5049764;28;44918;-86
2022/05/14 09:17:22;;;;;;;;;3.00;3.00;;;;;19.27;45.76;101586.00;5051857;28;45288;-85
2022/05/14 09:19:50;;;;;;;;;4.50;3.75;;;;;19.52;45.24;101611.19;5050726;28;46795;-89
2022/05/14 09:22:22;;;;;;;;;4.00;4.00;;;;;19.79;45.02;101644.41;5050318;28;45754;-85
2022/05/14 09:24:58;;;;;;;;;4.75;4.00;;;;;19.54;45.51;101590.75;5046112;28;45546;-87
2022/05/14 09:27:27;;;;;;;;;3.25;3.25;;;;;19.93;45.28;101645.44;5050496;28;45003;-86
2022/05/14 09:29:56;;;;;;;;;4.00;4.00;;;;;19.86;44.91;101622.25;5051539;28;46096;-85
2022/05/14 09:32:22;;;;;;;;;5.00;5.00;;;;;20.03;44.52;101639.31;5045938;28;45525;-88
2022/05/14 09:34:48;;;;;;;;;3.00;3.00;;;;;19.86;45.36;101600.91;5049260;28;45224;-84
2022/05/14 09:37:23;;;;;;;;;3.00;3.00;;;;;20.14;44.22;101638.53;5051630;28;45047;-87
2022/05/14 09:40:01;;;;;;;;;6.75;4.25;;;;;20.00;43.97;101603.69;5042717;28;48279;-86
2022/05/14 09:42:38;;;;;;;;;2.75;2.50;;;;;19.98;45.16;101590.34;5048214;28;45392;-86
2022/05/14 09:45:28;;;;;;;;;4.25;4.25;;;;;20.24;43.93;101611.94;5050958;28;45091;-86
2022/05/14 09:47:54;;;;;;;;;4.00;4.00;;;;;20.17;43.61;101587.84;5049177;28;45314;-87
2022/05/14 09:50:30;;;;;;;;;3.00;2.75;;;;;20.21;43.19;101595.03;5049934;28;47112;-87
2022/05/14 09:53:01;;;;;;;;;3.00;2.75;;;;;20.32;43.29;101607.56;5045078;28;45222;-86
2022/05/14 09:55:35;;;;;;;;;3.75;3.75;;;;;20.08;43.58;101559.31;5039406;28;45222;-87
2022/05/14 09:58:11;;;;;;;;;2.00;2.00;;;;;20.37;43.98;101599.59;5045778;28;45757;-84
2022/05/14 10:00:47;;;;;;;;;3.50;3.25;;;;;20.32;43.29;101567.53;5042523;28;45712;-84
2022/05/14 10:03:40;;;;;;;;;2.75;2.75;;;;;20.61;43.89;101594.47;5031058;28;45569;-84
2022/05/14 10:06:17;;;;;;;;;4.00;4.00;;;;;20.80;43.09;101603.50;5047508;28;45729;-84
2022/05/14 10:08:50;;;;;;;;;3.00;3.00;;;;;20.85;43.07;101601.75;5029606;28;45492;-85
2022/05/14 10:11:19;;;;;;;;;3.00;3.00;;;;;20.92;43.03;101605.34;5013418;28;46637;-85
2022/05/14 10:13:47;;;;;;;;;3.25;3.25;;;;;20.96;42.46;101604.50;5025044;28;45715;-85
2022/05/14 10:16:49;;;;;;;;;3.25;3.25;;;;;20.98;41.96;101601.81;5042423;28;45024;-85
2022/05/14 10:19:37;;;;;;;;;5.50;4.50;;;;;20.98;41.84;101601.81;5032277;28;45377;-85
2022/05/14 10:22:21;;;;;;;;;6.50;4.75;;;;;21.03;42.77;101605.41;5035762;28;47257;-85
2022/05/14 10:28:01;;;;;;;;;5.00;4.75;;;;;20.96;42.44;101548.38;5048249;28;45194;-85
2022/05/14 10:30:41;;;;;;;;;5.75;5.75;;;;;20.87;41.54;101518.91;5033804;28;45506;-84
2022/05/14 10:33:18;;;;;;;;;4.00;4.00;;;;;21.09;41.74;101555.56;5041585;28;46182;-85
2022/05/14 10:36:28;;;;;;;;;5.00;3.00;;;;;21.21;42.12;101545.78;5034200;28;45201;-87
2022/05/14 10:39:00;;;;;;;;;4.00;4.00;;;;;21.41;42.25;101561.94;5035996;28;45173;-85
2022/05/14 10:41:29;;;;;;;;;7.00;5.50;;;;;21.67;41.51;101591.44;5046486;28;44958;-83
2022/05/14 10:44:01;;;;;;;;;3.75;3.75;;;;;21.33;41.27;101513.78;5026432;28;45909;-87
2022/05/14 10:46:28;;;;;;;;;3.25;3.25;;;;;21.57;41.23;101550.38;5043931;28;45278;-87
2022/05/14 10:49:03;;;;;;;;;5.25;5.25;;;;;21.70;40.99;101554.00;5034655;28;45411;-85
2022/05/14 10:51:31;;;;;;;;;5.00;3.75;;;;;21.68;40.66;101548.66;5047105;28;45405;-85
2022/05/14 10:54:00;;;;;;;;;5.75;5.00;;;;;21.68;40.69;101540.63;5063555;28;45670;-87
2022/05/14 10:56:35;;;;;;;;;4.00;3.25;;;;;21.50;40.70;101506.69;5043401;28;45790;-86
2022/05/14 10:59:10;;;;;;;;;4.00;4.00;;;;;21.66;40.19;101520.97;5043266;28;45075;-87
2022/05/14 11:01:40;;;;;;;;;6.50;5.00;;;;;21.96;40.66;101573.63;5046666;28;45367;-87
2022/05/14 11:04:21;;;;;;;;;5.00;4.00;;;;;21.98;40.20;101566.53;5035370;28;45481;-86
2022/05/14 11:07:02;;;;;;;;;31.25;30.25;;;;;21.75;40.13;101530.81;5041043;28;45506;-85
2022/05/14 11:09:30;;;;;;;;;6.50;5.50;;;;;22.04;40.22;101574.56;5027974;28;45037;-86
2022/05/14 11:12:03;;;;;;;;;4.75;4.50;;;;;21.70;40.39;101498.69;5035266;28;45194;-87
2022/05/14 11:14:56;;;;;;;;;7.00;6.75;;;;;22.25;40.48;101559.41;5034109;28;47680;-85
2022/05/14 11:17:32;;;;;;;;;5.00;5.00;;;;;22.33;40.33;101561.19;5034998;28;45306;-85
2022/05/14 11:20:04;;;;;;;;;6.00;6.00;;;;;22.46;39.71;101559.38;5041061;28;45558;-86
2022/05/14 11:22:35;;;;;;;;;4.00;4.00;;;;;22.22;40.29;101511.22;5035073;28;45233;-89
2022/05/14 11:25:23;;;;;;;;;4.00;4.00;;;;;22.41;40.60;101515.63;5021045;28;45990;-86
2022/05/14 11:27:54;;;;;;;;;6.00;5.25;;;;;22.73;40.20;101552.19;5019254;28;45556;-83
2022/05/14 11:30:45;;;;;;;;;6.00;5.75;;;;;22.44;40.11;101498.69;5018015;28;45422;-84
2022/05/14 11:33:26;;;;;;;;;4.50;4.25;;;;;22.90;40.10;101547.69;5024304;28;45457;-85
2022/05/14 11:35:56;;;;;;;;;5.50;5.50;;;;;22.37;39.05;101447.81;5024552;28;45640;-88
2022/05/14 11:38:24;;;;;;;;;5.25;5.00;;;;;22.94;38.61;101548.59;5043473;28;45855;-88
2022/05/14 11:41:00;;;;;;;;;5.25;5.00;;;;;22.91;38.70;101541.47;5031577;28;45435;-87
2022/05/14 11:43:33;;;;;;;;;4.00;4.00;;;;;22.72;38.88;101512.91;5042665;28;45189;-87
2022/05/14 11:46:21;;;;;;;;;8.25;6.75;;;;;22.91;38.58;101541.47;5050247;28;45410;-87
2022/05/14 11:49:03;;;;;;;;;5.00;5.00;;;;;22.94;38.83;101519.09;5034464;28;46263;-86
2022/05/14 11:51:35;;;;;;;;;6.00;5.50;;;;;23.10;38.71;101524.41;5034439;28;45455;-87